Darstellungsparameter: Aktuell verwendete Einstellungen:
Skalierung der Graphiken ... ?
xyx+y,   Skalierungsfaktor:      Skalierung: Modus: x, Faktor: 1
Darstellungszeitraum ... ?
Vom - - bis: - -   Zeitraum: 29.11.2011 - 01.12.2011
Min/Max/Avg-Anzeige ... ?
Zeige MMA aktuell
Zeige MMA Monat
Zeige MMA alles
Zeige --A aktuell
Zeige --A Monat
Zeige --A alles
Keine MMA-Anzeige
MMA:
Average (ber die Originaldaten)
MMA-Basis: 29.11.2011 - 01.12.2011
Quicknavigation für Darstellung... ?
Tage:      1T, 2T, 3T, 5T -1T -2T -3T -5T +1T +2T +3T +5T
Wochen: 1W, 2W, 3W -1W -2W -3W +1W +2W +3W
Monate: 1M, 3M, 6M -1M -3M -6M +1M +3M +6M
Jahre:    1J, 3J, 5J, 10J -1J -3J -5J -10J +1J +3J +5J +10J
Nutze für die Darstellung ... ?
Originaldaten oder Mittelwerte auf ...
Stundenbasis Tagesbasis Wochenbasis
Monatsbasis Jahresbasis      Datenbasis: Original-Daten
Darstellen als:
Statistik (Auto) Statistik J:M      Darstellung:
Zur Graphik,    zurück zur Übersicht aller Sensoren.
 
Tabellarische Datenbersicht: ?
 
Sensor: Nr:Datum:Temp:Abs-Feuchte:Windchill:Wind:
Aussen-T/F 1 29-11-2011 00:10:01 -0.8 C 4.31 g/m*3 -0.8 C 0 km/h
2 29-11-2011 00:22:01 -0.6 C 4.37 g/m*3 -0.6 C 0 km/h
3 29-11-2011 00:34:01 -0.7 C 4.34 g/m*3 -0.7 C 0 km/h
4 29-11-2011 00:46:01 -0.7 C 4.34 g/m*3 -0.7 C 0 km/h
5 29-11-2011 00:58:01 -0.9 C 4.28 g/m*3 -0.9 C 0 km/h
6 29-11-2011 01:10:01 -1.1 C 4.22 g/m*3 -1.1 C 0 km/h
7 29-11-2011 01:22:02 -1.2 C 4.19 g/m*3 -1.2 C 0 km/h
8 29-11-2011 01:34:01 -1.2 C 4.19 g/m*3 -1.2 C 0 km/h
9 29-11-2011 01:46:02 -1.3 C 4.16 g/m*3 -1.3 C 0 km/h
10 29-11-2011 01:58:02 -1.2 C 4.19 g/m*3 -1.2 C 0 km/h
11 29-11-2011 02:10:01 -1.2 C 4.19 g/m*3 -1.2 C 0 km/h
12 29-11-2011 02:22:01 -1.3 C 4.16 g/m*3 -1.3 C 0 km/h
13 29-11-2011 02:34:02 -1.2 C 4.19 g/m*3 -1.2 C 0 km/h
14 29-11-2011 02:47:05 -1.3 C 4.16 g/m*3 -1.3 C 0 km/h
15 29-11-2011 02:59:05 -1.2 C 4.19 g/m*3 -1.2 C 0 km/h
16 29-11-2011 03:11:04 -1.2 C 4.19 g/m*3 -1.2 C 0 km/h
17 29-11-2011 03:23:04 -1.1 C 4.22 g/m*3 -1.1 C 0 km/h
18 29-11-2011 03:35:02 -1 C 4.25 g/m*3 -1 C 0 km/h
19 29-11-2011 03:47:02 -0.7 C 4.34 g/m*3 -0.7 C 0 km/h
20 29-11-2011 03:59:02 -0.8 C 4.31 g/m*3 -0.8 C 0 km/h
21 29-11-2011 04:11:01 -0.7 C 4.34 g/m*3 -0.7 C 0 km/h
22 29-11-2011 04:23:02 -0.5 C 4.4 g/m*3 -0.5 C 0 km/h
23 29-11-2011 04:35:02 -0.4 C 4.43 g/m*3 -0.4 C 0 km/h
24 29-11-2011 04:47:02 -0.3 C 4.46 g/m*3 -0.3 C 0 km/h
25 29-11-2011 04:59:02 -0.2 C 4.49 g/m*3 -0.2 C 0 km/h
Sensor: Nr:Datum:Temp:Abs-Feuchte:Windchill:Wind:
Aussen-T/F 26 29-11-2011 05:11:02 -0.2 C 4.49 g/m*3 -0.2 C 0 km/h
27 29-11-2011 05:23:02 0 C 4.55 g/m*3 0 C 0 km/h
28 29-11-2011 05:35:02 0.1 C 4.59 g/m*3 0.1 C 0 km/h
29 29-11-2011 05:47:01 0.1 C 4.59 g/m*3 0.1 C 0 km/h
30 29-11-2011 05:59:01 0.3 C 4.65 g/m*3 0.3 C 0 km/h
31 29-11-2011 06:11:02 0.3 C 4.65 g/m*3 0.3 C 0 km/h
32 29-11-2011 06:23:01 0.3 C 4.7 g/m*3 0.3 C 0 km/h
33 29-11-2011 06:35:02 0.5 C 4.76 g/m*3 0.5 C 0 km/h
34 29-11-2011 06:47:02 0.6 C 4.8 g/m*3 0.6 C 0 km/h
35 29-11-2011 06:59:02 0.6 C 4.8 g/m*3 0.6 C 0 km/h
36 29-11-2011 07:11:02 0.6 C 4.8 g/m*3 0.6 C 0 km/h
37 29-11-2011 07:23:02 0.7 C 4.83 g/m*3 0.7 C 0 km/h
38 29-11-2011 07:35:02 0.5 C 4.76 g/m*3 0.5 C 0 km/h
39 29-11-2011 07:47:01 0.3 C 4.65 g/m*3 0.3 C 0 km/h
40 29-11-2011 07:59:01 0.4 C 4.68 g/m*3 0.4 C 0 km/h
41 29-11-2011 08:11:01 -0.4 C 4.43 g/m*3 -0.4 C 0 km/h
42 29-11-2011 08:23:02 -0.7 C 4.34 g/m*3 -0.7 C 0 km/h
43 29-11-2011 08:35:01 -0.2 C 4.49 g/m*3 -0.2 C 0 km/h
44 29-11-2011 08:47:03 0.7 C 4.78 g/m*3 0.7 C 0 km/h
45 29-11-2011 08:59:03 1.4 C 5.01 g/m*3 1.4 C 0 km/h
46 29-11-2011 09:11:02 1.5 C 5.05 g/m*3 1.5 C 0 km/h
47 29-11-2011 09:23:02 1.5 C 5.05 g/m*3 1.5 C 0 km/h
48 29-11-2011 09:35:02 1.8 C 5.21 g/m*3 1.8 C 0 km/h
49 29-11-2011 09:47:02 2 C 5.22 g/m*3 2 C 0 km/h
50 29-11-2011 09:59:02 2.3 C 5.33 g/m*3 2.3 C 0 km/h
Sensor: Nr:Datum:Temp:Abs-Feuchte:Windchill:Wind:
Aussen-T/F 51 29-11-2011 10:11:02 3.2 C 5.66 g/m*3 3.2 C 0 km/h
52 29-11-2011 10:23:02 3.7 C 5.86 g/m*3 3.7 C 0 km/h
53 29-11-2011 10:35:01 3.8 C 5.83 g/m*3 3.8 C 0 km/h
54 29-11-2011 10:47:02 3.6 C 5.76 g/m*3 3.6 C 0 km/h
55 29-11-2011 10:59:03 3.6 C 5.69 g/m*3 3.6 C 0 km/h
56 29-11-2011 11:11:01 3.4 C 5.56 g/m*3 3.4 C 0 km/h
57 29-11-2011 11:23:01 3.8 C 5.71 g/m*3 3.8 C 0 km/h
58 29-11-2011 11:35:02 3.7 C 5.48 g/m*3 3.7 C 0 km/h
59 29-11-2011 11:47:02 4.1 C 5.5 g/m*3 4.1 C 0 km/h
60 29-11-2011 11:59:02 4.3 C 5.51 g/m*3 4.3 C 0 km/h
61 29-11-2011 12:11:02 4.6 C 5.43 g/m*3 4.6 C 0 km/h
62 29-11-2011 12:23:02 5.2 C 5.37 g/m*3 5.2 C 0 km/h
63 29-11-2011 12:35:02 5.5 C 5.34 g/m*3 5.5 C 0 km/h
64 29-11-2011 12:47:02 5.4 C 5.09 g/m*3 5.4 C 0 km/h
65 29-11-2011 12:59:03 5.6 C 5.09 g/m*3 5.6 C 0 km/h
66 29-11-2011 13:11:01 5.9 C 5.19 g/m*3 5.9 C 0 km/h
67 29-11-2011 13:23:01 6.2 C 5.07 g/m*3 6.2 C 0 km/h
68 29-11-2011 13:35:02 6.2 C 5 g/m*3 6.2 C 0 km/h
69 29-11-2011 13:47:02 5.9 C 5.05 g/m*3 5.9 C 0 km/h
70 29-11-2011 13:59:02 5.9 C 5.19 g/m*3 5.9 C 0 km/h
71 29-11-2011 14:11:02 6.4 C 5.14 g/m*3 6.4 C 0 km/h
72 29-11-2011 14:23:01 6.5 C 5.02 g/m*3 6.5 C 0 km/h
73 29-11-2011 14:35:02 6.4 C 5.07 g/m*3 6.4 C 0 km/h
74 29-11-2011 14:47:02 6 C 5.01 g/m*3 6 C 0 km/h
75 29-11-2011 14:59:02 5.3 C 5.06 g/m*3 5.3 C 0 km/h
Sensor: Nr:Datum:Temp:Abs-Feuchte:Windchill:Wind:
Aussen-T/F 76 29-11-2011 15:11:02 4.9 C 5.2 g/m*3 4.9 C 0 km/h
77 29-11-2011 15:23:01 4.4 C 5.22 g/m*3 4.4 C 0 km/h
78 29-11-2011 15:35:02 4.2 C 5.22 g/m*3 4.2 C 0 km/h
79 29-11-2011 15:47:02 3.8 C 5.21 g/m*3 3.8 C 0 km/h
80 29-11-2011 15:59:02 3.2 C 5.06 g/m*3 3.2 C 0 km/h
81 29-11-2011 16:11:02 2.9 C 5.08 g/m*3 2.9 C 0 km/h
82 29-11-2011 16:23:02 2.4 C 4.97 g/m*3 2.4 C 0 km/h
83 29-11-2011 16:35:02 2.3 C 4.99 g/m*3 2.3 C 0 km/h
84 29-11-2011 16:47:02 2.2 C 4.96 g/m*3 2.2 C 0 km/h
85 29-11-2011 16:59:02 2 C 4.95 g/m*3 2 C 0 km/h
86 29-11-2011 17:11:02 1.6 C 4.81 g/m*3 1.6 C 0 km/h
87 29-11-2011 17:23:02 1.6 C 4.87 g/m*3 1.6 C 0 km/h
88 29-11-2011 17:35:01 1.6 C 4.87 g/m*3 1.6 C 0 km/h
89 29-11-2011 17:47:02 1.4 C 4.8 g/m*3 1.4 C 0 km/h
90 29-11-2011 17:59:02 1.4 C 4.8 g/m*3 1.4 C 0 km/h
91 29-11-2011 18:11:01 1.3 C 4.82 g/m*3 1.3 C 0 km/h
92 29-11-2011 18:23:01 1.6 C 4.92 g/m*3 1.6 C 0 km/h
93 29-11-2011 18:35:02 1.7 C 4.95 g/m*3 1.7 C 0 km/h
94 29-11-2011 18:47:02 1.3 C 4.87 g/m*3 1.3 C 0 km/h
95 29-11-2011 18:59:02 1.1 C 4.76 g/m*3 1.1 C 0 km/h
96 29-11-2011 19:11:01 1.6 C 4.97 g/m*3 1.6 C 0 km/h
97 29-11-2011 19:23:02 1.5 C 4.94 g/m*3 1.5 C 0 km/h
98 29-11-2011 19:35:02 1.3 C 4.87 g/m*3 1.3 C 0 km/h
99 29-11-2011 19:47:01 1.3 C 4.87 g/m*3 1.3 C 0 km/h
100 29-11-2011 19:59:01 2 C 5.11 g/m*3 2 C 0 km/h
Sensor: Nr:Datum:Temp:Abs-Feuchte:Windchill:Wind:
Aussen-T/F 101 29-11-2011 20:11:02 2 C 5.11 g/m*3 2 C 0 km/h
102 29-11-2011 20:23:01 2.1 C 5.15 g/m*3 2.1 C 0 km/h
103 29-11-2011 20:35:01 2.3 C 5.27 g/m*3 2.3 C 0 km/h
104 29-11-2011 20:47:01 2.3 C 5.27 g/m*3 2.3 C 0 km/h
105 29-11-2011 20:59:01 1.9 C 5.13 g/m*3 1.9 C 0 km/h
106 29-11-2011 21:11:02 1.7 C 5.06 g/m*3 1.7 C 0 km/h
107 29-11-2011 21:23:01 1.6 C 5.03 g/m*3 1.6 C 0 km/h
108 29-11-2011 21:35:01 2.1 C 5.2 g/m*3 2.1 C 0 km/h
109 29-11-2011 21:47:02 2.6 C 5.38 g/m*3 2.6 C 0 km/h
110 29-11-2011 21:59:02 2.1 C 5.2 g/m*3 2.1 C 0 km/h
111 29-11-2011 22:11:01 2.1 C 5.2 g/m*3 2.1 C 0 km/h
112 29-11-2011 22:23:01 1.9 C 5.19 g/m*3 1.9 C 0 km/h
113 29-11-2011 22:35:02 1.9 C 5.19 g/m*3 1.9 C 0 km/h
114 29-11-2011 22:47:02 2.1 C 5.2 g/m*3 2.1 C 0 km/h
115 29-11-2011 22:59:02 2.4 C 5.31 g/m*3 2.4 C 0 km/h
116 29-11-2011 23:11:02 3.3 C 5.64 g/m*3 3.3 C 0 km/h
117 29-11-2011 23:23:02 3.4 C 5.68 g/m*3 3.4 C 0 km/h
118 29-11-2011 23:35:02 5.1 C 6.36 g/m*3 5.1 C 0 km/h
119 29-11-2011 23:47:01 5.4 C 6.49 g/m*3 5.4 C 0 km/h
120 29-11-2011 23:59:01 6.5 C 6.9 g/m*3 6.5 C 0 km/h
121 30-11-2011 00:11:02 6.7 C 7.07 g/m*3 6.7 C 0 km/h
122 30-11-2011 00:23:02 7 C 7.13 g/m*3 7 C 0 km/h
123 30-11-2011 00:35:01 8.1 C 7.49 g/m*3 8.1 C 0 km/h
124 30-11-2011 00:47:02 7.9 C 7.23 g/m*3 7.9 C 0 km/h
125 30-11-2011 00:59:02 7.9 C 7.23 g/m*3 7.9 C 0 km/h
Sensor: Nr:Datum:Temp:Abs-Feuchte:Windchill:Wind:
Aussen-T/F 126 30-11-2011 01:11:02 8.2 C 7.29 g/m*3 8.2 C 0 km/h
127 30-11-2011 01:23:02 8.4 C 7.21 g/m*3 8.4 C 0 km/h
128 30-11-2011 01:35:03 8.4 C 7.21 g/m*3 8.4 C 0 km/h
129 30-11-2011 01:47:02 9 C 7.23 g/m*3 9 C 0 km/h
130 30-11-2011 01:59:02 9.2 C 7.05 g/m*3 9.2 C 0 km/h
131 30-11-2011 02:11:01 9.1 C 7.01 g/m*3 9.1 C 0 km/h
132 30-11-2011 02:23:02 9.3 C 7.1 g/m*3 9.3 C 0 km/h
133 30-11-2011 02:35:02 9.2 C 6.97 g/m*3 9.2 C 0 km/h
134 30-11-2011 02:47:01 9.3 C 7.01 g/m*3 9.3 C 0 km/h
135 30-11-2011 02:59:01 9.5 C 7.19 g/m*3 9.5 C 0 km/h
136 30-11-2011 03:11:02 9.5 C 7.1 g/m*3 9.5 C 0 km/h
137 30-11-2011 03:23:02 9.5 C 7.1 g/m*3 9.5 C 0 km/h
138 30-11-2011 03:35:01 9.3 C 7.01 g/m*3 9.3 C 0 km/h
139 30-11-2011 03:47:01 9.2 C 7.05 g/m*3 9.2 C 0 km/h
140 30-11-2011 03:59:02 9 C 6.96 g/m*3 9 C 0 km/h
141 30-11-2011 04:11:01 8.7 C 7.01 g/m*3 8.7 C 0 km/h
142 30-11-2011 04:23:01 8.6 C 6.96 g/m*3 8.6 C 0 km/h
143 30-11-2011 04:35:02 8.6 C 7.13 g/m*3 8.6 C 0 km/h
144 30-11-2011 04:47:01 8.5 C 7.09 g/m*3 8.5 C 0 km/h
145 30-11-2011 04:59:01 8.1 C 6.91 g/m*3 8.1 C 0 km/h
146 30-11-2011 05:11:02 8.2 C 7.03 g/m*3 8.2 C 0 km/h
147 30-11-2011 05:23:01 7.8 C 6.94 g/m*3 7.8 C 0 km/h
148 30-11-2011 05:35:01 6.8 C 6.58 g/m*3 6.8 C 0 km/h
149 30-11-2011 05:47:01 6.8 C 6.65 g/m*3 6.8 C 0 km/h
150 30-11-2011 05:59:01 6.3 C 6.51 g/m*3 6.3 C 0 km/h
Sensor: Nr:Datum:Temp:Abs-Feuchte:Windchill:Wind:
Aussen-T/F 151 30-11-2011 06:11:02 6.2 C 6.47 g/m*3 6.2 C 0 km/h
152 30-11-2011 06:23:01 6 C 6.46 g/m*3 6 C 0 km/h
153 30-11-2011 06:35:01 6 C 6.46 g/m*3 6 C 0 km/h
154 30-11-2011 06:47:01 6 C 6.46 g/m*3 6 C 0 km/h
155 30-11-2011 06:59:01 5.6 C 6.43 g/m*3 5.6 C 0 km/h
156 30-11-2011 07:11:01 5.5 C 6.39 g/m*3 5.5 C 0 km/h
157 30-11-2011 07:23:02 5.3 C 6.31 g/m*3 5.3 C 0 km/h
158 30-11-2011 07:35:01 5.3 C 6.31 g/m*3 5.3 C 0 km/h
159 30-11-2011 07:47:02 4.8 C 6.17 g/m*3 4.8 C 0 km/h
160 30-11-2011 07:59:02 5 C 6.18 g/m*3 5 C 0 km/h
161 30-11-2011 08:11:01 4.6 C 6.09 g/m*3 4.6 C 0 km/h
162 30-11-2011 08:23:02 4.5 C 6.05 g/m*3 4.5 C 0 km/h
163 30-11-2011 08:35:01 4 C 5.85 g/m*3 4 C 0 km/h
164 30-11-2011 08:47:02 4.1 C 5.89 g/m*3 4.1 C 0 km/h
165 30-11-2011 08:59:02 4.8 C 6.17 g/m*3 4.8 C 0 km/h
166 30-11-2011 09:11:01 4.7 C 6.13 g/m*3 4.7 C 0 km/h
167 30-11-2011 09:23:01 4.6 C 6.09 g/m*3 4.6 C 0 km/h
168 30-11-2011 09:35:02 4 C 5.85 g/m*3 4 C 0 km/h
169 30-11-2011 09:47:01 3.3 C 5.58 g/m*3 3.3 C 0 km/h
170 30-11-2011 09:59:01 3.7 C 5.73 g/m*3 3.7 C 0 km/h
171 30-11-2011 10:11:02 4 C 5.85 g/m*3 4 C 0 km/h
172 30-11-2011 10:23:01 3.9 C 5.87 g/m*3 3.9 C 0 km/h
173 30-11-2011 10:35:01 3.9 C 5.87 g/m*3 3.9 C 0 km/h
174 30-11-2011 10:47:01 4.2 C 5.93 g/m*3 4.2 C 0 km/h
175 30-11-2011 10:59:01 4.2 C 5.93 g/m*3 4.2 C 0 km/h
Sensor: Nr:Datum:Temp:Abs-Feuchte:Windchill:Wind:
Aussen-T/F 176 30-11-2011 11:11:02 4.3 C 5.97 g/m*3 4.3 C 0 km/h
177 30-11-2011 11:23:01 4.3 C 5.97 g/m*3 4.3 C 0 km/h
178 30-11-2011 11:35:01 4.9 C 6.21 g/m*3 4.9 C 0 km/h
179 30-11-2011 11:47:01 5.3 C 6.38 g/m*3 5.3 C 0 km/h
180 30-11-2011 11:59:01 5.5 C 6.39 g/m*3 5.5 C 0 km/h
181 30-11-2011 12:11:01 5.6 C 6.43 g/m*3 5.6 C 0 km/h
182 30-11-2011 12:23:02 6.2 C 6.55 g/m*3 6.2 C 0 km/h
183 30-11-2011 12:35:01 6.1 C 6.28 g/m*3 6.1 C 0 km/h
184 30-11-2011 12:47:02 5.8 C 6.02 g/m*3 5.8 C 0 km/h
185 30-11-2011 12:59:02 5.8 C 6.02 g/m*3 5.8 C 0 km/h
186 30-11-2011 13:11:01 6.2 C 6.03 g/m*3 6.2 C 0 km/h
187 30-11-2011 13:23:01 6.6 C 6.11 g/m*3 6.6 C 0 km/h
188 30-11-2011 13:35:01 7 C 6.12 g/m*3 7 C 0 km/h
189 30-11-2011 13:47:01 7.9 C 6.16 g/m*3 7.9 C 0 km/h
190 30-11-2011 13:59:02 8.4 C 6.02 g/m*3 8.4 C 0 km/h
191 30-11-2011 14:11:01 8.7 C 5.88 g/m*3 8.7 C 0 km/h
192 30-11-2011 14:23:01 8.5 C 5.64 g/m*3 8.5 C 0 km/h
193 30-11-2011 14:35:01 8.2 C 5.78 g/m*3 8.2 C 0 km/h
194 30-11-2011 14:47:02 8.2 C 5.86 g/m*3 8.2 C 0 km/h
195 30-11-2011 14:59:02 8.1 C 5.91 g/m*3 8.1 C 0 km/h
196 30-11-2011 15:11:01 7.8 C 5.88 g/m*3 7.8 C 0 km/h
197 30-11-2011 15:23:01 7.4 C 5.73 g/m*3 7.4 C 0 km/h
198 30-11-2011 15:35:02 7.1 C 5.69 g/m*3 7.1 C 0 km/h
199 30-11-2011 15:47:01 6.6 C 5.74 g/m*3 6.6 C 0 km/h
200 30-11-2011 15:59:01 6.2 C 5.74 g/m*3 6.2 C 0 km/h
Sensor: Nr:Datum:Temp:Abs-Feuchte:Windchill:Wind:
Aussen-T/F 201 30-11-2011 16:11:02 5.8 C 5.66 g/m*3 5.8 C 0 km/h
202 30-11-2011 16:23:01 5.3 C 5.54 g/m*3 5.3 C 0 km/h
203 30-11-2011 16:35:02 5.1 C 5.54 g/m*3 5.1 C 0 km/h
204 30-11-2011 16:47:01 4.8 C 5.57 g/m*3 4.8 C 0 km/h
205 30-11-2011 16:59:01 4.7 C 5.6 g/m*3 4.7 C 0 km/h
206 30-11-2011 17:11:02 4.3 C 5.45 g/m*3 4.3 C 0 km/h
207 30-11-2011 17:23:01 4.1 C 5.44 g/m*3 4.1 C 0 km/h
208 30-11-2011 17:35:01 4.2 C 5.48 g/m*3 4.2 C 0 km/h
209 30-11-2011 17:47:01 4.1 C 5.44 g/m*3 4.1 C 0 km/h
210 30-11-2011 17:59:01 3.5 C 5.29 g/m*3 3.5 C 0 km/h
211 30-11-2011 18:11:01 2.6 C 5.03 g/m*3 2.6 C 0 km/h
212 30-11-2011 18:23:02 1.7 C 4.74 g/m*3 1.7 C 0 km/h
213 30-11-2011 18:35:01 1.6 C 4.7 g/m*3 1.6 C 0 km/h
214 30-11-2011 18:47:02 1.5 C 4.73 g/m*3 1.5 C 0 km/h
215 30-11-2011 18:59:02 1.2 C 4.63 g/m*3 1.2 C 0 km/h
216 30-11-2011 19:11:01 1 C 4.57 g/m*3 1 C 0 km/h
217 30-11-2011 19:23:02 0.7 C 4.53 g/m*3 0.7 C 0 km/h
218 30-11-2011 19:35:01 0.6 C 4.49 g/m*3 0.6 C 0 km/h
219 30-11-2011 19:47:02 0.5 C 4.46 g/m*3 0.5 C 0 km/h
220 30-11-2011 19:59:02 0.1 C 4.34 g/m*3 0.1 C 0 km/h
221 30-11-2011 20:11:01 0 C 4.31 g/m*3 0 C 0 km/h
222 30-11-2011 20:23:01 0 C 4.36 g/m*3 0 C 0 km/h
223 30-11-2011 20:35:02 0.1 C 4.39 g/m*3 0.1 C 0 km/h
224 30-11-2011 20:47:01 0 C 4.36 g/m*3 0 C 0 km/h
225 30-11-2011 20:59:01 0.1 C 4.44 g/m*3 0.1 C 0 km/h
Sensor: Nr:Datum:Temp:Abs-Feuchte:Windchill:Wind:
Aussen-T/F 226 30-11-2011 21:11:01 -0.5 C 4.26 g/m*3 -0.5 C 0 km/h
227 30-11-2011 21:23:01 -0.5 C 4.26 g/m*3 -0.5 C 0 km/h
228 30-11-2011 21:35:02 -0.7 C 4.2 g/m*3 -0.7 C 0 km/h
229 30-11-2011 21:47:01 -0.6 C 4.23 g/m*3 -0.6 C 0 km/h
230 30-11-2011 21:59:01 -0.9 C 4.14 g/m*3 -0.9 C 0 km/h
231 30-11-2011 22:11:02 -0.6 C 4.23 g/m*3 -0.6 C 0 km/h
232 30-11-2011 22:23:01 -0.9 C 4.14 g/m*3 -0.9 C 0 km/h
233 30-11-2011 22:35:02 -0.7 C 4.25 g/m*3 -0.7 C 0 km/h
234 30-11-2011 22:47:01 0.1 C 4.49 g/m*3 0.1 C 0 km/h
235 30-11-2011 22:59:01 -0.5 C 4.31 g/m*3 -0.5 C 0 km/h
236 30-11-2011 23:11:02 -1.3 C 4.07 g/m*3 -1.3 C 0 km/h
237 30-11-2011 23:23:01 -1.2 C 4.1 g/m*3 -1.2 C 0 km/h
238 30-11-2011 23:35:01 -1.7 C 3.96 g/m*3 -1.7 C 0 km/h
239 30-11-2011 23:47:01 -1.2 C 4.1 g/m*3 -1.2 C 0 km/h
240 30-11-2011 23:59:01 -1.3 C 4.07 g/m*3 -1.3 C 0 km/h
241 01-12-2011 00:11:01 -1.7 C 3.96 g/m*3 -1.7 C 0 km/h
242 01-12-2011 00:23:01 -1.8 C 3.93 g/m*3 -1.8 C 0 km/h
243 01-12-2011 00:35:02 -1.7 C 3.96 g/m*3 -1.7 C 0 km/h
244 01-12-2011 00:47:01 -1.7 C 3.96 g/m*3 -1.7 C 0 km/h
245 01-12-2011 00:59:01 -1.4 C 4.09 g/m*3 -1.4 C 0 km/h
246 01-12-2011 01:11:02 -1.8 C 3.93 g/m*3 -1.8 C 0 km/h
247 01-12-2011 01:23:01 -1.2 C 4.15 g/m*3 -1.2 C 0 km/h
248 01-12-2011 01:35:01 -1.6 C 4.03 g/m*3 -1.6 C 0 km/h
249 01-12-2011 01:47:01 -1.8 C 3.98 g/m*3 -1.8 C 0 km/h
250 01-12-2011 01:59:01 -2 C 3.92 g/m*3 -2 C 0 km/h
Sensor: Nr:Datum:Temp:Abs-Feuchte:Windchill:Wind:
Aussen-T/F 251 01-12-2011 02:11:02 -2 C 3.92 g/m*3 -2 C 0 km/h
252 01-12-2011 02:23:01 -2.1 C 3.89 g/m*3 -2.1 C 0 km/h
253 01-12-2011 02:35:01 -2 C 3.92 g/m*3 -2 C 0 km/h
254 01-12-2011 02:48:04 -2 C 3.92 g/m*3 -2 C 0 km/h
255 01-12-2011 03:00:04 -1.6 C 4.03 g/m*3 -1.6 C 0 km/h
256 01-12-2011 03:12:05 -1.4 C 4.09 g/m*3 -1.4 C 0 km/h
257 01-12-2011 03:24:05 -1.7 C 4 g/m*3 -1.7 C 0 km/h
258 01-12-2011 03:36:02 -1.4 C 4.09 g/m*3 -1.4 C 0 km/h
259 01-12-2011 03:48:02 -0.9 C 4.23 g/m*3 -0.9 C 0 km/h
260 01-12-2011 04:00:02 -0.8 C 4.31 g/m*3 -0.8 C 0 km/h
261 01-12-2011 04:12:02 -0.3 C 4.46 g/m*3 -0.3 C 0 km/h
262 01-12-2011 04:24:02 -0.4 C 4.43 g/m*3 -0.4 C 0 km/h
263 01-12-2011 04:36:02 -0.5 C 4.4 g/m*3 -0.5 C 0 km/h
264 01-12-2011 04:48:02 -0.4 C 4.43 g/m*3 -0.4 C 0 km/h
265 01-12-2011 05:00:02 -0.2 C 4.49 g/m*3 -0.2 C 0 km/h
266 01-12-2011 05:12:02 0 C 4.55 g/m*3 0 C 0 km/h
267 01-12-2011 05:24:03 -0.2 C 4.49 g/m*3 -0.2 C 0 km/h
268 01-12-2011 05:36:02 0.4 C 4.68 g/m*3 0.4 C 0 km/h
269 01-12-2011 05:48:01 0.1 C 4.59 g/m*3 0.1 C 0 km/h
270 01-12-2011 06:00:01 0.1 C 4.59 g/m*3 0.1 C 0 km/h
271 01-12-2011 06:12:02 0.6 C 4.75 g/m*3 0.6 C 0 km/h
272 01-12-2011 06:24:01 0.7 C 4.78 g/m*3 0.7 C 0 km/h
273 01-12-2011 06:36:01 1.4 C 5.01 g/m*3 1.4 C 0 km/h
274 01-12-2011 06:48:01 1.9 C 5.19 g/m*3 1.9 C 0 km/h
275 01-12-2011 07:00:01 1.9 C 5.19 g/m*3 1.9 C 0 km/h
Sensor: Nr:Datum:Temp:Abs-Feuchte:Windchill:Wind:
Aussen-T/F 276 01-12-2011 07:12:01 2.3 C 5.33 g/m*3 2.3 C 0 km/h
277 01-12-2011 07:24:02 2.4 C 5.37 g/m*3 2.4 C 0 km/h
278 01-12-2011 07:36:01 2.5 C 5.4 g/m*3 2.5 C 0 km/h
279 01-12-2011 07:36:01 2.5 C 5.4 g/m*3 2.5 C 0 km/h
280 01-12-2011 07:36:01 2.5 C 5.4 g/m*3 2.5 C 0 km/h
281 01-12-2011 07:36:01 2.5 C 5.4 g/m*3 2.5 C 0 km/h
282 01-12-2011 07:48:03 2.8 C 5.51 g/m*3 2.8 C 0 km/h
283 01-12-2011 08:00:03 2.6 C 5.44 g/m*3 2.6 C 0 km/h
284 01-12-2011 08:12:02 2.7 C 5.48 g/m*3 2.7 C 0 km/h
285 01-12-2011 08:24:02 2.7 C 5.48 g/m*3 2.7 C 0 km/h
286 01-12-2011 08:36:02 2.4 C 5.37 g/m*3 2.4 C 0 km/h
287 01-12-2011 08:48:02 2.6 C 5.44 g/m*3 2.6 C 0 km/h
288 01-12-2011 09:00:02 3 C 5.59 g/m*3 3 C 0 km/h
289 01-12-2011 09:12:02 3.6 C 5.82 g/m*3 3.6 C 0 km/h
290 01-12-2011 09:24:02 3.5 C 5.78 g/m*3 3.5 C 0 km/h
291 01-12-2011 09:36:02 3.2 C 5.66 g/m*3 3.2 C 0 km/h
292 01-12-2011 09:48:02 3.4 C 5.74 g/m*3 3.4 C 0 km/h
293 01-12-2011 10:00:02 3.2 C 5.66 g/m*3 3.2 C 0 km/h
294 01-12-2011 10:12:02 3.4 C 5.74 g/m*3 3.4 C 0 km/h
295 01-12-2011 10:24:02 3.3 C 5.7 g/m*3 3.3 C 0 km/h
296 01-12-2011 10:36:01 3.7 C 5.86 g/m*3 3.7 C 0 km/h
297 01-12-2011 10:48:02 4 C 5.98 g/m*3 4 C 0 km/h
298 01-12-2011 11:00:03 4.8 C 6.3 g/m*3 4.8 C 0 km/h
299 01-12-2011 11:12:01 5.1 C 6.36 g/m*3 5.1 C 0 km/h
300 01-12-2011 11:24:01 5.7 C 6.62 g/m*3 5.7 C 0 km/h
Sensor: Nr:Datum:Temp:Abs-Feuchte:Windchill:Wind:
Aussen-T/F 301 01-12-2011 11:36:02 6 C 6.75 g/m*3 6 C 0 km/h
302 01-12-2011 11:48:02 5.8 C 6.66 g/m*3 5.8 C 0 km/h
303 01-12-2011 12:00:02 6.4 C 6.85 g/m*3 6.4 C 0 km/h
304 01-12-2011 12:12:02 6.8 C 7.04 g/m*3 6.8 C 0 km/h
305 01-12-2011 12:24:01 7.9 C 7.56 g/m*3 7.9 C 0 km/h
306 01-12-2011 12:36:02 8.1 C 7.57 g/m*3 8.1 C 0 km/h
307 01-12-2011 12:48:02 8.9 C 7.97 g/m*3 8.9 C 0 km/h
308 01-12-2011 13:00:02 9.1 C 7.9 g/m*3 9.1 C 0 km/h
309 01-12-2011 13:12:02 9.9 C 8.31 g/m*3 9.9 C 0 km/h
310 01-12-2011 13:24:01 9.6 C 8.06 g/m*3 9.6 C 0 km/h
311 01-12-2011 13:36:02 10.1 C 8.13 g/m*3 10.1 C 0 km/h
312 01-12-2011 13:48:01 10.1 C 8.04 g/m*3 10.1 C 0 km/h
313 01-12-2011 14:00:01 10 C 7.99 g/m*3 10 C 0 km/h
314 01-12-2011 14:12:02 10.4 C 8.19 g/m*3 10.4 C 0 km/h
315 01-12-2011 14:24:02 10.7 C 8.15 g/m*3 10.7 C 0 km/h
316 01-12-2011 14:36:01 10.7 C 7.96 g/m*3 10.7 C 0 km/h
317 01-12-2011 14:48:02 10.6 C 7.81 g/m*3 10.6 C 0 km/h
318 01-12-2011 15:00:02 10.5 C 7.76 g/m*3 10.5 C 0 km/h
319 01-12-2011 15:12:01 10.4 C 7.81 g/m*3 10.4 C 0 km/h
320 01-12-2011 15:24:02 10.2 C 7.8 g/m*3 10.2 C 0 km/h
321 01-12-2011 15:36:01 10.1 C 7.75 g/m*3 10.1 C 0 km/h
322 01-12-2011 15:48:02 10.2 C 7.71 g/m*3 10.2 C 0 km/h
323 01-12-2011 16:00:03 10.7 C 7.86 g/m*3 10.7 C 0 km/h
324 01-12-2011 16:12:02 11 C 7.61 g/m*3 11 C 0 km/h
325 01-12-2011 16:24:02 11.5 C 7.33 g/m*3 11.5 C 0 km/h
Sensor: Nr:Datum:Temp:Abs-Feuchte:Windchill:Wind:
Aussen-T/F 326 01-12-2011 16:36:02 11.9 C 7.2 g/m*3 11.9 C 0 km/h
327 01-12-2011 16:48:01 12.1 C 7.08 g/m*3 12.1 C 0 km/h
328 01-12-2011 17:00:01 12 C 7.03 g/m*3 12 C 0 km/h
329 01-12-2011 17:12:02 11.8 C 7.16 g/m*3 11.8 C 0 km/h
330 01-12-2011 17:24:01 11.9 C 7.1 g/m*3 11.9 C 0 km/h
331 01-12-2011 17:36:02 11.4 C 7.19 g/m*3 11.4 C 0 km/h
332 01-12-2011 17:48:01 11.2 C 7.3 g/m*3 11.2 C 0 km/h
333 01-12-2011 18:00:01 11.7 C 7.32 g/m*3 11.7 C 0 km/h
334 01-12-2011 18:12:02 11.3 C 7.24 g/m*3 11.3 C 0 km/h
335 01-12-2011 18:24:01 11.1 C 7.25 g/m*3 11.1 C 0 km/h
336 01-12-2011 18:36:02 11 C 7.31 g/m*3 11 C 0 km/h
337 01-12-2011 18:48:01 10.8 C 7.51 g/m*3 10.8 C 0 km/h
338 01-12-2011 19:00:01 10.4 C 7.42 g/m*3 10.4 C 0 km/h
339 01-12-2011 19:12:02 10.4 C 7.61 g/m*3 10.4 C 0 km/h
340 01-12-2011 19:24:02 10.1 C 7.66 g/m*3 10.1 C 0 km/h
341 01-12-2011 19:36:01 9.9 C 7.84 g/m*3 9.9 C 0 km/h
342 01-12-2011 19:48:02 9.7 C 7.84 g/m*3 9.7 C 0 km/h
343 01-12-2011 20:00:02 9.6 C 7.88 g/m*3 9.6 C 0 km/h
344 01-12-2011 20:12:01 9.4 C 7.78 g/m*3 9.4 C 0 km/h
345 01-12-2011 20:24:02 9.3 C 7.82 g/m*3 9.3 C 0 km/h
346 01-12-2011 20:36:01 9.3 C 7.82 g/m*3 9.3 C 0 km/h
347 01-12-2011 20:48:02 9.2 C 7.77 g/m*3 9.2 C 0 km/h
348 01-12-2011 21:00:02 9.3 C 7.82 g/m*3 9.3 C 0 km/h
349 01-12-2011 21:12:02 9.3 C 7.91 g/m*3 9.3 C 0 km/h
350 01-12-2011 21:24:02 9.4 C 7.96 g/m*3 9.4 C 0 km/h
Sensor: Nr:Datum:Temp:Abs-Feuchte:Windchill:Wind:
Aussen-T/F 351 01-12-2011 21:36:03 9.5 C 8.01 g/m*3 9.5 C 0 km/h
352 01-12-2011 21:48:02 9.5 C 7.92 g/m*3 9.5 C 0 km/h
353 01-12-2011 22:00:02 9.6 C 7.97 g/m*3 9.6 C 0 km/h
354 01-12-2011 22:12:01 9.6 C 7.97 g/m*3 9.6 C 0 km/h
355 01-12-2011 22:24:02 9.7 C 8.02 g/m*3 9.7 C 0 km/h
356 01-12-2011 22:36:02 9.8 C 8.07 g/m*3 9.8 C 0 km/h
357 01-12-2011 22:48:02 9.8 C 8.07 g/m*3 9.8 C 0 km/h
358 01-12-2011 23:00:02 9.6 C 7.97 g/m*3 9.6 C 0 km/h
359 01-12-2011 23:12:02 9.7 C 8.02 g/m*3 9.7 C 0 km/h
360 01-12-2011 23:24:02 9.5 C 7.92 g/m*3 9.5 C 0 km/h
361 01-12-2011 23:36:02 9.7 C 8.02 g/m*3 9.7 C 0 km/h
362 01-12-2011 23:48:01 9.8 C 8.07 g/m*3 9.8 C 0 km/h

Legende:
   Min
   Max


Maximal/Minimal-Werte vom 29.11.2011 - 01.12.2011

Sensor Min Max Avg
Temp
(Aussen-T/F)
-2.1 °C
01-12-2011  02:23:01
12.1 °C
01-12-2011  16:48:01
4.09 °C
Abs-Feuchte
(Aussen-T/F)
3.89 g/m*3
01-12-2011  02:23:01
8.31 g/m*3
01-12-2011  13:12:02
5.68 g/m*3
Windchill
(Aussen-T/F)
-2.1 C
01-12-2011  02:23:01
12.1 C
01-12-2011  16:48:01
4.07 C

Die Daten stammen von einer Davis Vantage Pro 2 Wetter-Station und werden unter Linux mit der Software wview2wettercgi und aufbereitet. Alle Angaben erfolgen ohne Gewähr für ihre Vollständigkeit oder Richtigkeit.
Kontakt: Rainer Krienke krienke@uni-koblenz.de . Meine Webseiten an der Uni Koblenz oder privat.
Version: $Revision: 0.78 $